createdAt,value
2022-12-11T00:02:05.853Z,20.60
2022-12-11T00:04:32.220Z,20.61
2022-12-11T00:06:58.543Z,20.61
2022-12-11T00:09:24.864Z,20.62
2022-12-11T00:11:51.216Z,20.62
2022-12-11T00:14:17.565Z,20.63
2022-12-11T00:16:43.900Z,20.63
2022-12-11T00:19:10.277Z,20.62
2022-12-11T00:21:36.681Z,20.62
2022-12-11T00:24:03.013Z,20.62
2022-12-11T00:26:29.346Z,20.63
2022-12-11T00:28:55.905Z,20.63
2022-12-11T00:31:22.327Z,20.63
2022-12-11T00:33:49.163Z,20.64
2022-12-11T00:36:16.386Z,20.63
2022-12-11T00:38:43.458Z,20.62
2022-12-11T00:41:09.782Z,20.61
2022-12-11T00:43:36.091Z,20.61
2022-12-11T00:46:02.457Z,20.61
2022-12-11T00:48:28.853Z,20.60
2022-12-11T00:50:55.177Z,20.62
2022-12-11T00:53:21.540Z,20.63
2022-12-11T00:55:56.713Z,20.62
2022-12-11T00:58:23.024Z,20.61
2022-12-11T01:00:51.979Z,20.61
2022-12-11T01:03:18.370Z,20.60
2022-12-11T01:05:51.692Z,20.58
2022-12-11T01:08:18.515Z,20.57
2022-12-11T01:10:44.894Z,20.56
2022-12-11T01:13:11.322Z,20.55
2022-12-11T01:15:42.048Z,20.54
2022-12-11T01:18:08.767Z,20.54
2022-12-11T01:20:35.105Z,20.56
2022-12-11T01:23:01.446Z,20.58
2022-12-11T01:25:27.776Z,20.58
2022-12-11T01:27:54.445Z,20.58
2022-12-11T01:30:21.088Z,20.58
2022-12-11T01:32:47.392Z,20.58
2022-12-11T01:35:13.745Z,20.57
2022-12-11T01:37:40.052Z,20.56
2022-12-11T01:40:06.769Z,20.56
2022-12-11T01:42:33.096Z,20.55
2022-12-11T01:45:17.682Z,20.55
2022-12-11T01:47:44.034Z,20.54
2022-12-11T01:50:10.390Z,20.51
2022-12-11T01:52:36.706Z,20.51
2022-12-11T01:55:03.035Z,20.51
2022-12-11T01:57:29.362Z,20.51
2022-12-11T01:59:55.699Z,20.52
2022-12-11T02:02:29.430Z,20.53
2022-12-11T02:04:55.789Z,20.53
2022-12-11T02:07:22.104Z,20.55
2022-12-11T02:09:48.432Z,20.56
2022-12-11T02:12:14.681Z,20.55
2022-12-11T02:14:55.966Z,20.55
2022-12-11T02:17:23.800Z,20.54
2022-12-11T02:19:55.252Z,20.54
2022-12-11T02:22:27.133Z,20.53
2022-12-11T02:24:59.070Z,20.50
2022-12-11T02:27:41.971Z,20.50
2022-12-11T02:30:08.976Z,20.49
2022-12-11T02:32:37.139Z,20.49
2022-12-11T02:35:05.998Z,20.49
2022-12-11T02:37:32.346Z,20.50
2022-12-11T02:39:58.708Z,20.50
2022-12-11T02:42:26.076Z,20.51
2022-12-11T02:44:52.401Z,20.53
2022-12-11T02:47:19.200Z,20.51
2022-12-11T02:49:46.398Z,20.50
2022-12-11T02:52:13.086Z,20.53
2022-12-11T02:54:39.412Z,20.52
2022-12-11T02:57:09.693Z,20.50
2022-12-11T02:59:36.816Z,20.49
2022-12-11T03:02:03.274Z,20.49
2022-12-11T03:04:29.665Z,20.49
2022-12-11T03:06:56.446Z,20.47
2022-12-11T03:09:22.772Z,20.45
2022-12-11T03:11:49.108Z,20.45
2022-12-11T03:14:15.420Z,20.43
2022-12-11T03:16:42.817Z,20.42
2022-12-11T03:19:38.340Z,20.40
2022-12-11T03:22:11.773Z,20.40
2022-12-11T03:24:39.389Z,20.38
2022-12-11T03:27:15.456Z,20.36
2022-12-11T03:29:43.450Z,20.35
2022-12-11T03:32:13.498Z,20.34
2022-12-11T03:35:03.291Z,20.35
2022-12-11T03:37:31.021Z,20.38
2022-12-11T03:39:58.159Z,20.40
2022-12-11T03:42:24.502Z,20.41
2022-12-11T03:44:50.845Z,20.42
2022-12-11T03:47:18.059Z,20.45
2022-12-11T03:49:44.586Z,20.45
2022-12-11T03:52:11.115Z,20.47
2022-12-11T03:54:37.444Z,20.47
2022-12-11T03:57:03.961Z,20.49
2022-12-11T03:59:30.316Z,20.49
2022-12-11T04:01:56.676Z,20.50
2022-12-11T04:04:23.044Z,20.51
2022-12-11T04:06:49.389Z,20.51
2022-12-11T04:09:15.697Z,20.51
2022-12-11T04:11:42.919Z,20.52
2022-12-11T04:14:28.356Z,20.53
2022-12-11T04:16:54.661Z,20.54
2022-12-11T04:19:39.813Z,20.51
2022-12-11T04:22:24.625Z,20.50
2022-12-11T04:24:51.013Z,20.51
2022-12-11T04:27:37.454Z,20.51
2022-12-11T04:30:04.840Z,20.50
2022-12-11T04:32:31.162Z,20.54
2022-12-11T04:34:57.501Z,20.40
2022-12-11T04:37:23.833Z,20.38
2022-12-11T04:39:50.169Z,20.40
2022-12-11T04:42:16.486Z,20.44
2022-12-11T04:44:42.987Z,20.44
2022-12-11T04:47:09.293Z,20.46
2022-12-11T04:49:35.599Z,20.47
2022-12-11T04:52:01.908Z,20.47
2022-12-11T04:54:29.653Z,20.48
2022-12-11T04:56:55.985Z,20.49
2022-12-11T04:59:22.307Z,20.50
2022-12-11T05:01:48.686Z,20.51
2022-12-11T05:04:15.046Z,20.53
2022-12-11T05:06:41.361Z,20.51
2022-12-11T05:09:10.774Z,20.53
2022-12-11T05:11:37.097Z,20.53
2022-12-11T05:14:04.480Z,20.54
2022-12-11T05:16:30.848Z,20.53
2022-12-11T05:18:57.205Z,20.54
2022-12-11T05:21:23.518Z,20.53
2022-12-11T05:23:49.824Z,20.53
2022-12-11T05:26:17.154Z,20.51
2022-12-11T05:28:43.536Z,20.51
2022-12-11T05:31:17.226Z,20.51
2022-12-11T05:33:43.825Z,20.51
2022-12-11T05:36:13.655Z,20.50
2022-12-11T05:38:40.078Z,20.49
2022-12-11T05:41:06.517Z,20.49
2022-12-11T05:43:33.669Z,20.49
2022-12-11T05:53:21.067Z,20.49
2022-12-11T05:55:47.414Z,20.50
2022-12-11T05:58:13.747Z,20.51
2022-12-11T06:00:41.515Z,20.53
2022-12-11T06:03:07.940Z,20.53
2022-12-11T06:05:40.463Z,20.55
2022-12-11T06:08:06.818Z,20.56
2022-12-11T06:10:33.209Z,20.56
2022-12-11T06:12:59.548Z,20.56
2022-12-11T06:15:25.886Z,20.54
2022-12-11T06:17:52.200Z,20.55
2022-12-11T06:20:18.520Z,20.53
2022-12-11T06:22:44.843Z,20.53
2022-12-11T06:25:11.595Z,20.54
2022-12-11T06:27:38.205Z,20.53
2022-12-11T06:30:04.632Z,20.52
2022-12-11T06:32:30.989Z,20.51
2022-12-11T06:34:57.288Z,20.51
2022-12-11T06:37:23.629Z,20.50
2022-12-11T06:39:49.940Z,20.50
2022-12-11T06:42:17.457Z,20.50
2022-12-11T06:44:43.772Z,20.49
2022-12-11T06:47:10.156Z,20.50
2022-12-11T06:49:36.480Z,20.51
2022-12-11T06:52:02.806Z,20.51
2022-12-11T06:54:29.118Z,20.51
2022-12-11T06:56:55.450Z,20.52
2022-12-11T06:59:21.782Z,20.55
2022-12-11T07:01:48.235Z,20.55
2022-12-11T07:04:14.634Z,20.56
2022-12-11T07:06:41.205Z,20.55
2022-12-11T07:09:07.534Z,20.55
2022-12-11T07:11:33.868Z,20.56
2022-12-11T07:14:00.713Z,20.54
2022-12-11T07:16:27.228Z,20.58
2022-12-11T07:18:53.573Z,20.57
2022-12-11T07:21:20.068Z,20.54
2022-12-11T07:23:46.677Z,20.45
2022-12-11T07:26:13.884Z,20.55
2022-12-11T07:28:40.199Z,20.53
2022-12-11T07:31:10.520Z,20.50
2022-12-11T07:33:36.874Z,20.49
2022-12-11T07:36:06.790Z,20.49
2022-12-11T07:38:33.105Z,20.49
2022-12-11T07:41:02.797Z,20.50
2022-12-11T07:43:29.111Z,20.50
2022-12-11T07:45:55.500Z,20.50
2022-12-11T07:48:21.863Z,20.51
2022-12-11T07:50:48.199Z,20.53
2022-12-11T07:53:14.548Z,20.53
2022-12-11T07:55:40.941Z,20.54
2022-12-11T07:58:07.285Z,20.56
2022-12-11T08:00:33.677Z,20.55
2022-12-11T08:03:00.037Z,20.55
2022-12-11T08:05:26.390Z,20.55
2022-12-11T08:07:52.815Z,20.54
2022-12-11T08:10:19.296Z,20.53
2022-12-11T08:12:45.646Z,20.53
2022-12-11T08:15:12.120Z,20.50
2022-12-11T08:17:40.282Z,20.49
2022-12-11T08:20:06.831Z,20.47
2022-12-11T08:22:33.382Z,20.47
2022-12-11T08:24:59.716Z,20.46
2022-12-11T08:27:27.918Z,20.45
2022-12-11T08:29:54.289Z,20.44
2022-12-11T08:32:20.634Z,20.45
2022-12-11T08:34:47.010Z,20.46
2022-12-11T08:37:13.619Z,20.46
2022-12-11T08:39:39.930Z,20.47
2022-12-11T08:42:06.736Z,20.48
2022-12-11T08:44:33.039Z,20.48
2022-12-11T08:46:59.346Z,20.49
2022-12-11T08:49:27.600Z,20.49
2022-12-11T08:51:57.540Z,20.51
2022-12-11T08:54:23.869Z,20.51
2022-12-11T08:56:54.799Z,20.51
2022-12-11T08:59:25.518Z,20.52
2022-12-11T09:01:52.018Z,20.47
2022-12-11T09:04:18.408Z,20.48
2022-12-11T09:06:44.762Z,20.53
2022-12-11T09:09:11.081Z,20.48
2022-12-11T09:11:37.799Z,20.49
2022-12-11T09:14:07.692Z,20.50
2022-12-11T09:16:37.534Z,20.49
2022-12-11T09:19:03.857Z,20.48
2022-12-11T09:21:30.309Z,20.47
2022-12-11T09:23:57.709Z,20.44
2022-12-11T09:26:24.407Z,20.21
2022-12-11T09:28:53.828Z,20.32
2022-12-11T09:31:24.243Z,20.43
2022-12-11T09:33:51.919Z,20.38
2022-12-11T09:36:18.750Z,20.16
2022-12-11T09:38:48.661Z,20.28
2022-12-11T09:41:24.562Z,20.37
2022-12-11T09:44:15.080Z,20.41
2022-12-11T09:46:41.471Z,20.44
2022-12-11T09:49:27.552Z,20.49
2022-12-11T09:52:05.841Z,20.50
2022-12-11T09:54:32.303Z,20.53
2022-12-11T09:57:03.052Z,20.54
2022-12-11T09:59:48.244Z,20.57
2022-12-11T10:02:30.592Z,20.56
2022-12-11T10:05:32.702Z,20.57
2022-12-11T10:08:07.812Z,20.57
2022-12-11T10:10:43.801Z,20.57
2022-12-11T10:13:13.637Z,20.56
2022-12-11T10:15:41.057Z,20.57
2022-12-11T10:18:10.221Z,20.56
2022-12-11T10:20:39.164Z,20.55
2022-12-11T10:23:09.260Z,20.56
2022-12-11T10:25:36.053Z,20.56
2022-12-11T10:28:08.950Z,20.57
2022-12-11T10:30:38.505Z,20.58
2022-12-11T10:33:10.911Z,20.58
2022-12-11T10:35:43.496Z,20.57
2022-12-11T10:38:36.763Z,20.60
2022-12-11T10:41:10.300Z,20.60
2022-12-11T10:43:37.463Z,20.59
2022-12-11T10:46:03.999Z,20.61
2022-12-11T10:48:30.368Z,20.59
2022-12-11T10:51:00.688Z,20.59
2022-12-11T10:53:27.138Z,20.59
2022-12-11T10:55:53.509Z,20.60
2022-12-11T10:58:20.543Z,20.61
2022-12-11T11:00:46.869Z,20.59
2022-12-11T11:03:22.847Z,20.59
2022-12-11T11:05:50.624Z,20.60
2022-12-11T11:08:19.314Z,20.61
2022-12-11T11:10:55.705Z,20.63
2022-12-11T11:13:22.956Z,20.62
2022-12-11T11:15:49.584Z,20.62
2022-12-11T11:18:22.848Z,20.64
2022-12-11T11:20:49.166Z,20.70
2022-12-11T11:23:15.799Z,20.72
2022-12-11T11:25:48.878Z,20.67
2022-12-11T11:28:21.077Z,20.64
2022-12-11T11:30:57.399Z,20.63
2022-12-11T11:33:23.732Z,20.61
2022-12-11T11:35:53.309Z,20.61
2022-12-11T11:38:20.337Z,20.59
2022-12-11T11:40:46.581Z,20.59
2022-12-11T11:43:20.223Z,20.58
2022-12-11T11:45:49.772Z,20.58
2022-12-11T11:48:30.721Z,20.58
2022-12-11T11:50:57.913Z,20.58
2022-12-11T11:53:30.262Z,20.59
2022-12-11T11:56:10.510Z,20.60
2022-12-11T11:58:39.534Z,20.61
2022-12-11T12:01:08.621Z,20.62
2022-12-11T12:03:35.410Z,20.61
2022-12-11T12:06:04.557Z,20.61
2022-12-11T12:08:46.544Z,20.60
2022-12-11T12:11:25.852Z,20.66
2022-12-11T12:14:02.350Z,20.70
2022-12-11T12:16:52.645Z,20.79
2022-12-11T12:19:19.551Z,20.86
2022-12-11T12:21:48.015Z,20.87
2022-12-11T12:24:29.877Z,20.92
2022-12-11T12:27:02.530Z,20.93
2022-12-11T12:29:45.347Z,20.95
2022-12-11T12:32:27.839Z,20.96
2022-12-11T12:34:57.074Z,20.91
2022-12-11T12:37:35.536Z,20.85
2022-12-11T12:40:16.624Z,20.80
2022-12-11T12:42:54.253Z,20.78
2022-12-11T12:45:39.389Z,20.78
2022-12-11T12:48:06.809Z,20.91
2022-12-11T12:50:37.102Z,21.17
2022-12-11T12:53:03.419Z,21.37
2022-12-11T12:55:29.748Z,21.15
2022-12-11T12:57:57.685Z,21.01
2022-12-11T13:00:27.785Z,21.05
2022-12-11T13:02:56.139Z,21.10
2022-12-11T13:05:31.724Z,21.17
2022-12-11T13:07:59.485Z,21.13
2022-12-11T13:10:28.665Z,21.08
2022-12-11T13:12:55.106Z,21.03
2022-12-11T13:15:25.751Z,21.05
2022-12-11T13:17:52.088Z,21.05
2022-12-11T13:20:19.375Z,21.04
2022-12-11T13:22:56.041Z,21.00
2022-12-11T13:25:26.816Z,21.00
2022-12-11T13:27:53.185Z,21.00
2022-12-11T13:30:19.482Z,20.99
2022-12-11T13:32:58.560Z,20.99
2022-12-11T13:35:24.899Z,20.97
2022-12-11T13:37:51.222Z,20.97
2022-12-11T13:40:17.454Z,20.96
2022-12-11T13:42:47.481Z,20.98
2022-12-11T13:45:21.985Z,20.97
2022-12-11T13:47:48.301Z,20.96
2022-12-11T13:50:16.102Z,20.97
2022-12-11T13:52:52.137Z,20.96
2022-12-11T13:55:25.619Z,20.96
2022-12-11T13:57:51.972Z,20.96
2022-12-11T14:00:28.088Z,20.97
2022-12-11T14:02:54.833Z,20.94
2022-12-11T14:05:21.159Z,20.95
2022-12-11T14:07:48.489Z,20.94
2022-12-11T14:10:16.137Z,20.92
2022-12-11T14:12:47.442Z,20.92
2022-12-11T14:15:14.722Z,20.92
2022-12-11T14:17:41.595Z,20.85
2022-12-11T14:20:11.625Z,20.84
2022-12-11T14:22:38.228Z,20.85
2022-12-11T14:25:14.780Z,20.80
2022-12-11T14:27:46.394Z,20.86
2022-12-11T14:30:13.341Z,20.85
2022-12-11T14:32:42.281Z,20.86
2022-12-11T14:35:11.726Z,20.85
2022-12-11T14:37:38.104Z,20.85
2022-12-11T14:40:16.102Z,20.87
2022-12-11T14:42:50.219Z,20.88
2022-12-11T14:45:20.885Z,20.88
2022-12-11T14:47:47.227Z,20.87
2022-12-11T14:50:16.825Z,20.87
2022-12-11T14:52:44.059Z,20.85
2022-12-11T14:55:14.017Z,20.82
2022-12-11T14:57:40.372Z,20.80
2022-12-11T15:00:07.027Z,20.77
2022-12-11T15:02:34.607Z,20.77
2022-12-11T15:05:04.011Z,20.77
2022-12-11T15:07:30.323Z,20.75
2022-12-11T15:09:56.628Z,20.77
2022-12-11T15:12:22.946Z,20.77
2022-12-11T15:14:56.086Z,20.77
2022-12-11T15:17:22.654Z,20.75
2022-12-11T15:19:51.077Z,20.76
2022-12-11T15:22:17.417Z,20.76
2022-12-11T15:24:44.002Z,20.77
2022-12-11T15:27:36.878Z,20.76
2022-12-11T15:30:18.378Z,20.78
2022-12-11T15:32:44.698Z,20.76
2022-12-11T15:35:23.894Z,20.74
2022-12-11T15:37:53.783Z,20.72
2022-12-11T15:40:20.103Z,20.70
2022-12-11T15:42:46.411Z,20.69
2022-12-11T15:45:19.675Z,20.67
2022-12-11T15:47:46.024Z,20.67
2022-12-11T15:50:16.727Z,20.66
2022-12-11T15:52:43.254Z,20.65
2022-12-11T15:55:09.990Z,20.65
2022-12-11T15:57:36.611Z,20.67
2022-12-11T16:00:03.153Z,20.66
2022-12-11T16:02:31.344Z,20.65
2022-12-11T16:04:57.699Z,20.65
2022-12-11T16:07:24.810Z,20.63
2022-12-11T16:09:51.286Z,20.63
2022-12-11T16:12:17.695Z,20.62
2022-12-11T16:14:44.630Z,20.64
2022-12-11T16:17:12.674Z,20.64
2022-12-11T16:19:39.477Z,20.63
2022-12-11T16:22:05.995Z,20.63
2022-12-11T16:24:32.769Z,20.63
2022-12-11T16:26:59.213Z,20.59
2022-12-11T16:29:25.691Z,20.61
2022-12-11T16:31:52.205Z,20.60
2022-12-11T16:34:18.696Z,20.59
2022-12-11T16:36:45.133Z,20.59
2022-12-11T16:39:12.188Z,20.59
2022-12-11T16:41:38.639Z,20.58
2022-12-11T16:44:05.635Z,20.56
2022-12-11T16:46:32.164Z,20.54
2022-12-11T16:48:58.674Z,20.53
2022-12-11T16:51:25.071Z,20.53
2022-12-11T16:53:51.827Z,20.54
2022-12-11T16:56:18.225Z,20.55
2022-12-11T16:58:44.561Z,20.53
2022-12-11T17:01:12.727Z,20.50
2022-12-11T17:03:39.193Z,20.50
2022-12-11T17:06:06.098Z,20.53
2022-12-11T17:08:32.439Z,20.55
2022-12-11T17:10:58.823Z,20.56
2022-12-11T17:13:25.192Z,20.58
2022-12-11T17:15:51.579Z,20.58
2022-12-11T17:18:18.368Z,20.58
2022-12-11T17:20:47.485Z,20.58
2022-12-11T17:23:13.855Z,20.56
2022-12-11T17:25:40.972Z,20.56
2022-12-11T17:28:07.305Z,20.56
2022-12-11T17:30:33.635Z,20.56
2022-12-11T17:33:00.034Z,20.55
2022-12-11T17:35:26.553Z,20.52
2022-12-11T17:37:52.940Z,20.51
2022-12-11T17:40:20.698Z,20.50
2022-12-11T17:42:47.475Z,20.51
2022-12-11T17:45:14.180Z,20.50
2022-12-11T17:47:40.728Z,20.50
2022-12-11T17:50:10.030Z,20.49
2022-12-11T17:52:42.481Z,20.50
2022-12-11T17:55:10.867Z,20.51
2022-12-11T17:57:37.928Z,20.53
2022-12-11T18:00:04.668Z,20.57
2022-12-11T18:02:38.745Z,20.58
2022-12-11T18:05:05.083Z,20.58
2022-12-11T18:07:31.406Z,20.57
2022-12-11T18:09:57.776Z,20.56
2022-12-11T18:12:24.100Z,20.56
2022-12-11T18:14:50.420Z,20.53
2022-12-11T18:17:16.734Z,20.52
2022-12-11T18:19:46.170Z,20.57
2022-12-11T18:22:12.701Z,20.67
2022-12-11T18:24:39.029Z,20.69
2022-12-11T18:27:07.382Z,20.65
2022-12-11T18:29:33.800Z,20.62
2022-12-11T18:32:00.285Z,20.61
2022-12-11T18:46:24.168Z,18.62
2022-12-11T18:48:50.734Z,14.65
2022-12-11T18:51:18.420Z,18.22
2022-12-11T18:53:44.764Z,19.35
2022-12-11T18:56:11.859Z,19.79
2022-12-11T18:58:38.239Z,20.02
2022-12-11T19:01:08.510Z,20.18
2022-12-11T19:03:34.874Z,20.29
2022-12-11T19:06:08.067Z,20.33
2022-12-11T19:08:34.422Z,20.38
2022-12-11T19:11:01.438Z,20.43
2022-12-11T19:13:27.756Z,20.49
2022-12-11T19:15:54.289Z,20.54
2022-12-11T19:18:21.233Z,20.81
2022-12-11T19:20:50.948Z,20.85
2022-12-11T19:23:20.810Z,20.84
2022-12-11T19:25:47.503Z,20.92
2022-12-11T19:28:14.585Z,20.93
2022-12-11T19:30:49.224Z,20.95
2022-12-11T19:33:15.772Z,20.94
2022-12-11T19:35:43.523Z,20.90
2022-12-11T19:38:09.853Z,20.85
2022-12-11T19:40:43.548Z,20.81
2022-12-11T19:43:09.893Z,20.66
2022-12-11T19:45:36.372Z,20.77
2022-12-11T19:48:05.661Z,20.78
2022-12-11T19:50:32.293Z,20.79
2022-12-11T19:52:58.691Z,20.80
2022-12-11T19:55:25.025Z,20.81
2022-12-11T19:57:51.490Z,20.81
2022-12-11T20:00:18.767Z,20.81
2022-12-11T20:02:45.142Z,20.79
2022-12-11T20:05:11.711Z,20.60
2022-12-11T20:07:38.755Z,20.72
2022-12-11T20:10:05.242Z,20.78
2022-12-11T20:12:31.560Z,20.81
2022-12-11T20:14:57.900Z,20.83
2022-12-11T20:17:24.353Z,20.83
2022-12-11T20:19:50.781Z,20.84
2022-12-11T20:22:17.382Z,20.84
2022-12-11T20:24:43.722Z,20.84
2022-12-11T20:27:10.275Z,20.83
2022-12-11T20:29:37.787Z,20.83
2022-12-11T20:32:04.947Z,20.83
2022-12-11T20:34:31.337Z,20.83
2022-12-11T20:36:57.663Z,20.84
2022-12-11T20:39:23.999Z,20.85
2022-12-11T20:41:50.341Z,20.85
2022-12-11T20:44:25.934Z,20.86
2022-12-11T20:46:52.326Z,20.85
2022-12-11T20:49:18.641Z,20.96
2022-12-11T20:51:45.003Z,20.99
2022-12-11T20:54:17.572Z,21.10
2022-12-11T20:57:09.642Z,21.13
2022-12-11T20:59:36.298Z,21.11
2022-12-11T21:02:02.680Z,21.08
2022-12-11T21:04:29.524Z,21.10
2022-12-11T21:06:56.194Z,21.09
2022-12-11T21:09:24.136Z,21.06
2022-12-11T21:11:50.643Z,21.04
2022-12-11T21:14:17.152Z,21.01
2022-12-11T21:16:46.875Z,21.00
2022-12-11T21:19:17.214Z,21.00
2022-12-11T21:21:43.704Z,20.99
2022-12-11T21:24:16.924Z,20.97
2022-12-11T21:26:46.063Z,20.95
2022-12-11T21:29:15.085Z,20.95
2022-12-11T21:31:41.640Z,20.93
2022-12-11T21:34:08.024Z,20.93
2022-12-11T21:36:34.352Z,20.91
2022-12-11T21:39:00.966Z,20.90
2022-12-11T21:41:27.280Z,20.89
2022-12-11T21:47:24.596Z,20.85
2022-12-11T21:49:50.958Z,20.84
2022-12-11T21:52:17.659Z,20.84
2022-12-11T21:54:44.074Z,20.84
2022-12-11T21:57:10.404Z,20.84
2022-12-11T21:59:36.731Z,20.85
2022-12-11T22:02:03.175Z,20.84
2022-12-11T22:04:29.597Z,20.84
2022-12-11T22:06:55.955Z,20.83
2022-12-11T22:09:22.280Z,20.82
2022-12-11T22:11:50.618Z,20.83
2022-12-11T22:14:20.093Z,20.85
2022-12-11T22:16:46.546Z,20.84
2022-12-11T22:19:12.970Z,20.83
2022-12-11T22:21:39.370Z,20.83
2022-12-11T22:24:05.724Z,20.81
2022-12-11T22:26:32.056Z,20.81
2022-12-11T22:28:58.392Z,20.81
2022-12-11T22:31:28.158Z,20.81
2022-12-11T22:33:54.917Z,20.80
2022-12-11T22:36:21.704Z,20.80
2022-12-11T22:38:48.049Z,20.79
2022-12-11T22:41:18.957Z,20.78
2022-12-11T22:43:48.767Z,20.77
2022-12-11T22:46:15.731Z,20.75
2022-12-11T22:48:42.233Z,20.73
2022-12-11T22:51:08.593Z,20.73
2022-12-11T22:53:34.949Z,20.71
2022-12-11T22:56:07.633Z,20.70
2022-12-11T22:58:33.992Z,20.70
2022-12-11T23:01:00.785Z,20.69
2022-12-11T23:03:27.176Z,20.71
2022-12-11T23:05:53.582Z,20.71
2022-12-11T23:08:21.142Z,20.71
2022-12-11T23:10:48.365Z,20.70
2022-12-11T23:13:14.709Z,20.69
2022-12-11T23:15:41.127Z,20.68
2022-12-11T23:18:07.495Z,20.67
2022-12-11T23:20:33.851Z,20.65
2022-12-11T23:23:00.197Z,20.65
2022-12-11T23:25:27.918Z,20.64
2022-12-11T23:27:54.262Z,20.63
2022-12-11T23:30:20.606Z,20.63
2022-12-11T23:32:47.024Z,20.63
2022-12-11T23:35:13.619Z,20.63
2022-12-11T23:37:40.722Z,20.62
2022-12-11T23:40:07.365Z,20.63
2022-12-11T23:42:33.696Z,20.64
2022-12-11T23:45:00.044Z,20.65
2022-12-11T23:47:26.383Z,20.64
2022-12-11T23:49:52.713Z,20.64
2022-12-11T23:52:19.037Z,20.62
2022-12-11T23:54:45.537Z,20.62
2022-12-11T23:57:11.858Z,20.60
2022-12-11T23:59:38.164Z,20.60
